x

Pt Arena - 19nm North Of Point Arena, Ca (46014) Wave Buoy

2:50am - Thu 17th Apr 2014 All times are PDT. -7 hours from GMT.

  • Sig Wave height 8.5ft
  • Peak Period 8s
  • Average Period 6s
  • Wind
    22mph, 27mph gusts
  • Sea Temp 51°f
  • Air Temp 51°f
  • Sea Pressure 1011.7mb
  • Pt Arena - 19nm North Of Point Arena, Ca
  • Pt Arena - 19nm North Of Point Arena, Ca

More Historic Weather Station data

Upgrade to MSW Pro to gain access to the past 30 days of data for over 8000 Wavebouys and Weather Stations around the globe.

Join Pro

Comparision Forecast

View Surf forecast
   
Thu 04/17 2:50am 8.5ft 8s 6s 22 27 mph 1011.7mb 51f 51f
1:50am  -   -   -  25 29 mph 1012.2mb 51f 51f
12:50am 9.5ft 8s 6s 27 34 mph 1012.7mb 51f 52f
Wed 04/16 11:50pm 9.5ft 8s 6s 25 31 mph 1012.5mb 51f 52f
10:50pm 10ft 8s 6s 25 29 mph 1013mb 51f 52f
9:50pm 10ft 7s 6s 29 38 mph 1012.8mb 51f 52f
8:50pm  -   -   -  34
mph
- - -
7:50pm 10.5ft 8s 6s 34 40 mph 1012.1mb 51f 52f
6:50pm 11ft 8s 6s 34 40 mph 1012.6mb 51f 53f
5:50pm 12ft 8s 6s 31 38 mph 1012.6mb 51f 53f
4:50pm  -   -   -  31 38 mph 1013mb 51f 53f
3:50pm 10ft 8s 6s 29 34 mph 1013.5mb 51f 53f
2:50pm 11ft 8s 6s 29 34 mph 1013.7mb 51f 54f
1:50pm 9.5ft 8s 6s 27 34 mph 1014.5mb 51f 53f
12:50pm 10ft 8s 6s 27 34 mph 1015.2mb 51f 52f
11:50am 9.5ft 8s 6s 27 31 mph 1015.8mb 51f 52f
10:50am 10ft 8s 6s 29 34 mph 1015.9mb 51f 52f
9:50am 10ft 8s 6s 29 34 mph 1016.1mb 51f 51f
8:50am 10ft 8s 6s 29 36 mph 1016.2mb 51f 51f
7:50am 11ft 8s 6s 29 36 mph 1015.9mb 51f 51f
6:50am 11ft 9s 6s 31 38 mph 1015.3mb 51f 51f
5:50am 11ft 8s 6s 31 38 mph 1015.3mb 52f 52f
4:50am 12ft 8s 7s 29 36 mph 1015.4mb 52f 52f
3:50am  -   -   -  31
mph
1015.5mb - 52f
2:50am 11ft 9s 7s 31 36 mph 1015.8mb 52f 52f
1:50am 10.5ft 8s 6s 29 36 mph 1015.9mb 52f 52f
Tue 04/15 11:50pm 10ft 8s 6s 29 36 mph 1015.5mb 53f 52f
10:50pm  -   -   -  27 31 mph 1015.5mb 53f 53f
9:50pm 11.5ft 9s 7s 27 34 mph 1015.4mb 53f 52f
8:50pm 13.5ft 9s 7s 27 34 mph 1015.3mb 53f 53f
7:50pm 13.5ft 8s 7s 31 38 mph 1014.7mb 53f 53f
6:50pm  -   -   -  34 43 mph 1014.6mb 53f 53f
5:50pm 14.5ft 9s 7s 36 43 mph 1014.5mb 53f 53f
4:50pm  -   -   -  31 38 mph 1015mb 53f 54f
3:50pm  -   -   -  29
mph
- - -
2:50pm 11.5ft 9s 7s 29 38 mph 1016.9mb 53f 53f
1:50pm 12ft 9s 7s 29 36 mph 1017.1mb 53f 52f
12:50pm  -   -   -  27 34 mph 1017.8mb 53f 52f
10:50am 10ft 9s 7s 25 29 mph 1018.3mb 53f 52f
9:50am 10ft 8s 6s 27 31 mph 1018.2mb 53f 51f
8:50am 10.5ft 9s 7s 29 34 mph 1018.1mb 53f 51f
7:50am 10ft 8s 7s 25 29 mph 1018.1mb 53f 51f
6:50am 10ft 8s 6s 22 27 mph 1017.9mb 53f 52f
5:50am 10ft 8s 6s 22 27 mph 1017.8mb 53f 52f
4:50am 10.5ft 9s 6s 25 29 mph 1018mb 53f 52f
3:50am 11ft 9s 7s 29 36 mph 1018mb 53f 52f
2:50am 10ft 8s 6s 27 34 mph 1018.3mb 53f 52f
1:50am 10.5ft 9s 7s 29 36 mph 1018.6mb 53f 52f
12:50am 10ft 8s 6s 27 31 mph 1018.7mb 53f 52f
Mon 04/14 11:50pm 11ft 8s 7s 29 34 mph 1018.8mb 53f 53f
10:50pm 10ft 9s 7s 27 34 mph 1019.2mb 53f 52f
9:50pm  -   -   -  20 25 mph 1018.9mb 53f 53f
8:50pm 10ft 8s 7s 20 25 mph 1018.2mb 54f 53f
7:50pm 10ft 8s 7s 22 29 mph 1018.1mb 54f 53f
6:50pm 8.5ft 8s 7s 20 25 mph 1018.6mb 54f 53f
5:50pm 8ft 8s 6s 20 22 mph 1019.2mb 54f 53f
4:50pm 7ft 7s 6s 18 22 mph 1019.8mb 54f 52f
3:50pm 7.5ft 15s 6s 20 25 mph 1020.2mb 54f 52f
2:50pm  -   -   -  18 25 mph 1020.5mb 54f 52f
1:50pm 7.5ft 15s 6s 20 22 mph 1020.3mb 54f 53f
12:50pm 7.5ft 15s 6s 22 27 mph 1020mb 54f 53f
11:50am 6.5ft 15s 7s 18 20 mph 1020.1mb 54f 53f
10:50am 6ft 15s 7s 11 16 mph 1019.9mb 53f 53f
9:50am 6ft 15s 7s 9 11 mph 1019.6mb 53f 51f
8:50am 6ft 14s 6s 11 16 mph 1019.4mb 53f 50f
7:50am 6ft 14s 6s 11 16 mph 1019.1mb 53f 51f
6:50am 6ft 15s 6s 18 22 mph 1018.8mb 53f 50f
5:50am 5ft 15s 6s 16 20 mph 1018.4mb 53f 51f
4:50am 5.5ft 15s 7s 16 20 mph 1017.8mb 53f 51f
3:50am 5.5ft 15s 7s 11 16 mph 1017.7mb 53f 50f
2:50am 6ft 16s 7s 11 13 mph 1017.6mb 53f 51f
1:50am 6ft 16s 7s 13 16 mph 1018mb 53f 51f
12:50am 6ft 16s 7s 11 13 mph 1018.2mb 53f 52f
Sun 04/13 11:50pm 6ft 16s 7s 11 13 mph 1018.3mb 53f 51f
10:50pm 6ft 16s 7s 13 16 mph 1018.7mb 53f 52f
9:50pm 5.5ft 16s 7s 16 18 mph 1019.1mb 53f 53f
8:50pm 6ft 16s 8s 16 20 mph 1018.5mb 53f 53f
7:50pm 5.5ft 16s 7s 11 13 mph 1017.9mb 53f 52f
6:50pm  -   -   -  11 13 mph 1017.4mb 55f 52f
5:50pm 6ft 8s 7s 9 11 mph 1017.3mb 55f 53f
4:50pm 6.5ft 9s 7s 9
mph
1017.7mb 55f 53f
3:50pm  -   -   -  2 4 mph 1018.1mb 55f 54f
2:50pm 6ft 8s 7s 2 4 mph 1018.5mb 55f 53f
1:50pm 6.5ft 9s 7s 4 7 mph 1018.2mb 54f 53f
12:50pm 7.5ft 9s 7s 7 9 mph 1018.3mb 53f 52f
11:50am 7ft 10s 7s 7 9 mph 1018.3mb 53f 51f
10:50am 8ft 9s 7s 9 11 mph 1018.1mb 53f 51f